sensor_id;sensor_type;location;lat;lon;timestamp;P1;durP1;ratioP1;P2;durP2;ratioP2
58017;SDS011;43810;50.860;19.226;2022-11-06T00:00:14;68.70;;;28.40;;
58017;SDS011;43810;50.860;19.226;2022-11-06T00:02:56;60.35;;;27.02;;
58017;SDS011;43810;50.860;19.226;2022-11-06T00:05:23;58.10;;;26.55;;
58017;SDS011;43810;50.860;19.226;2022-11-06T00:08:08;72.03;;;26.17;;
58017;SDS011;43810;50.860;19.226;2022-11-06T00:10:34;64.65;;;27.52;;
58017;SDS011;43810;50.860;19.226;2022-11-06T00:13:00;69.10;;;26.52;;
58017;SDS011;43810;50.860;19.226;2022-11-06T00:15:26;64.97;;;25.95;;
58017;SDS011;43810;50.860;19.226;2022-11-06T00:17:52;65.13;;;27.48;;
58017;SDS011;43810;50.860;19.226;2022-11-06T00:20:18;62.15;;;24.92;;
58017;SDS011;43810;50.860;19.226;2022-11-06T00:22:44;64.97;;;25.58;;
58017;SDS011;43810;50.860;19.226;2022-11-06T00:25:10;55.22;;;23.67;;
58017;SDS011;43810;50.860;19.226;2022-11-06T00:27:36;56.88;;;26.02;;
58017;SDS011;43810;50.860;19.226;2022-11-06T00:30:04;63.60;;;25.15;;
58017;SDS011;43810;50.860;19.226;2022-11-06T00:32:31;61.67;;;24.23;;
58017;SDS011;43810;50.860;19.226;2022-11-06T00:34:57;58.97;;;24.40;;
58017;SDS011;43810;50.860;19.226;2022-11-06T00:37:23;53.90;;;21.27;;
58017;SDS011;43810;50.860;19.226;2022-11-06T00:39:49;43.95;;;19.85;;
58017;SDS011;43810;50.860;19.226;2022-11-06T00:42:14;52.65;;;22.95;;
58017;SDS011;43810;50.860;19.226;2022-11-06T00:44:40;55.03;;;22.35;;
58017;SDS011;43810;50.860;19.226;2022-11-06T00:47:06;51.38;;;23.10;;
58017;SDS011;43810;50.860;19.226;2022-11-06T00:49:33;71.95;;;27.75;;
58017;SDS011;43810;50.860;19.226;2022-11-06T00:51:58;67.93;;;24.88;;
58017;SDS011;43810;50.860;19.226;2022-11-06T00:54:25;48.50;;;20.20;;
58017;SDS011;43810;50.860;19.226;2022-11-06T00:56:51;75.05;;;28.58;;
58017;SDS011;43810;50.860;19.226;2022-11-06T00:59:17;51.72;;;18.73;;
58017;SDS011;43810;50.860;19.226;2022-11-06T01:01:43;44.95;;;19.25;;
58017;SDS011;43810;50.860;19.226;2022-11-06T01:04:12;43.35;;;17.42;;
58017;SDS011;43810;50.860;19.226;2022-11-06T01:06:41;44.28;;;18.08;;
58017;SDS011;43810;50.860;19.226;2022-11-06T01:09:10;44.42;;;19.88;;
58017;SDS011;43810;50.860;19.226;2022-11-06T01:11:47;48.20;;;20.52;;
58017;SDS011;43810;50.860;19.226;2022-11-06T01:14:15;41.67;;;18.45;;
58017;SDS011;43810;50.860;19.226;2022-11-06T01:16:42;49.50;;;20.55;;
58017;SDS011;43810;50.860;19.226;2022-11-06T01:19:10;40.55;;;17.80;;
58017;SDS011;43810;50.860;19.226;2022-11-06T01:21:38;45.50;;;19.42;;
58017;SDS011;43810;50.860;19.226;2022-11-06T01:24:11;48.25;;;19.20;;
58017;SDS011;43810;50.860;19.226;2022-11-06T01:26:39;48.00;;;21.48;;
58017;SDS011;43810;50.860;19.226;2022-11-06T01:29:06;49.72;;;21.42;;
58017;SDS011;43810;50.860;19.226;2022-11-06T01:31:34;48.72;;;21.45;;
58017;SDS011;43810;50.860;19.226;2022-11-06T01:34:01;51.95;;;21.05;;
58017;SDS011;43810;50.860;19.226;2022-11-06T01:36:28;43.15;;;19.85;;
58017;SDS011;43810;50.860;19.226;2022-11-06T01:38:55;39.78;;;17.95;;
58017;SDS011;43810;50.860;19.226;2022-11-06T01:41:24;39.08;;;17.17;;
58017;SDS011;43810;50.860;19.226;2022-11-06T01:43:53;42.80;;;18.02;;
58017;SDS011;43810;50.860;19.226;2022-11-06T01:46:22;41.05;;;16.73;;
58017;SDS011;43810;50.860;19.226;2022-11-06T01:48:53;46.55;;;17.40;;
58017;SDS011;43810;50.860;19.226;2022-11-06T01:51:23;38.10;;;15.55;;
58017;SDS011;43810;50.860;19.226;2022-11-06T01:53:52;43.42;;;18.05;;
58017;SDS011;43810;50.860;19.226;2022-11-06T01:56:19;34.80;;;17.23;;
58017;SDS011;43810;50.860;19.226;2022-11-06T01:58:46;35.75;;;16.67;;
58017;SDS011;43810;50.860;19.226;2022-11-06T02:01:16;41.40;;;18.13;;
58017;SDS011;43810;50.860;19.226;2022-11-06T02:03:45;44.08;;;16.52;;
58017;SDS011;43810;50.860;19.226;2022-11-06T02:06:17;43.80;;;16.13;;
58017;SDS011;43810;50.860;19.226;2022-11-06T02:08:43;41.45;;;16.55;;
58017;SDS011;43810;50.860;19.226;2022-11-06T02:11:09;54.03;;;20.60;;
58017;SDS011;43810;50.860;19.226;2022-11-06T02:13:42;46.42;;;18.67;;
58017;SDS011;43810;50.860;19.226;2022-11-06T02:16:26;51.30;;;20.10;;
58017;SDS011;43810;50.860;19.226;2022-11-06T02:19:23;45.50;;;18.08;;
58017;SDS011;43810;50.860;19.226;2022-11-06T02:27:27;53.58;;;19.45;;
58017;SDS011;43810;50.860;19.226;2022-11-06T02:30:05;50.17;;;20.92;;
58017;SDS011;43810;50.860;19.226;2022-11-06T02:35:33;58.05;;;20.55;;
58017;SDS011;43810;50.860;19.226;2022-11-06T02:38:07;51.53;;;21.50;;
58017;SDS011;43810;50.860;19.226;2022-11-06T02:40:39;47.58;;;21.27;;
58017;SDS011;43810;50.860;19.226;2022-11-06T02:43:09;48.92;;;19.25;;
58017;SDS011;43810;50.860;19.226;2022-11-06T02:45:38;43.88;;;19.02;;
58017;SDS011;43810;50.860;19.226;2022-11-06T02:48:08;49.22;;;19.67;;
58017;SDS011;43810;50.860;19.226;2022-11-06T02:50:41;45.88;;;17.90;;
58017;SDS011;43810;50.860;19.226;2022-11-06T02:53:10;41.30;;;17.92;;
58017;SDS011;43810;50.860;19.226;2022-11-06T02:55:42;36.72;;;17.08;;
58017;SDS011;43810;50.860;19.226;2022-11-06T02:58:18;42.30;;;15.88;;
58017;SDS011;43810;50.860;19.226;2022-11-06T03:00:52;45.78;;;18.05;;
58017;SDS011;43810;50.860;19.226;2022-11-06T03:03:29;42.10;;;17.85;;
58017;SDS011;43810;50.860;19.226;2022-11-06T03:05:58;42.92;;;16.63;;
58017;SDS011;43810;50.860;19.226;2022-11-06T03:11:27;36.92;;;16.38;;
58017;SDS011;43810;50.860;19.226;2022-11-06T03:13:57;38.40;;;17.15;;
58017;SDS011;43810;50.860;19.226;2022-11-06T03:19:45;56.35;;;19.60;;
58017;SDS011;43810;50.860;19.226;2022-11-06T03:24:58;48.60;;;18.52;;
58017;SDS011;43810;50.860;19.226;2022-11-06T03:27:32;48.47;;;18.90;;
58017;SDS011;43810;50.860;19.226;2022-11-06T03:30:05;50.28;;;20.27;;
58017;SDS011;43810;50.860;19.226;2022-11-06T03:32:35;49.45;;;20.10;;
58017;SDS011;43810;50.860;19.226;2022-11-06T03:35:11;61.50;;;21.55;;
58017;SDS011;43810;50.860;19.226;2022-11-06T03:38:06;61.72;;;21.60;;
58017;SDS011;43810;50.860;19.226;2022-11-06T03:40:36;60.88;;;23.33;;
58017;SDS011;43810;50.860;19.226;2022-11-06T03:43:07;50.08;;;18.85;;
58017;SDS011;43810;50.860;19.226;2022-11-06T03:45:37;64.07;;;21.30;;
58017;SDS011;43810;50.860;19.226;2022-11-06T03:51:00;69.15;;;23.13;;
58017;SDS011;43810;50.860;19.226;2022-11-06T03:53:33;62.47;;;21.47;;
58017;SDS011;43810;50.860;19.226;2022-11-06T03:56:04;51.67;;;19.55;;
58017;SDS011;43810;50.860;19.226;2022-11-06T03:58:35;54.72;;;20.67;;
58017;SDS011;43810;50.860;19.226;2022-11-06T04:01:04;52.50;;;20.42;;
58017;SDS011;43810;50.860;19.226;2022-11-06T04:03:33;62.72;;;22.40;;
58017;SDS011;43810;50.860;19.226;2022-11-06T04:06:06;56.65;;;20.13;;
58017;SDS011;43810;50.860;19.226;2022-11-06T04:08:36;61.55;;;19.92;;
58017;SDS011;43810;50.860;19.226;2022-11-06T04:11:23;58.90;;;20.42;;
58017;SDS011;43810;50.860;19.226;2022-11-06T04:14:10;45.92;;;17.85;;
58017;SDS011;43810;50.860;19.226;2022-11-06T04:16:42;43.50;;;18.27;;
58017;SDS011;43810;50.860;19.226;2022-11-06T04:19:16;42.97;;;16.80;;
58017;SDS011;43810;50.860;19.226;2022-11-06T04:24:58;35.72;;;14.98;;
58017;SDS011;43810;50.860;19.226;2022-11-06T04:30:52;35.28;;;15.10;;
58017;SDS011;43810;50.860;19.226;2022-11-06T04:33:49;36.58;;;14.13;;
58017;SDS011;43810;50.860;19.226;2022-11-06T04:42:03;32.92;;;12.65;;
58017;SDS011;43810;50.860;19.226;2022-11-06T04:44:37;29.17;;;13.57;;
58017;SDS011;43810;50.860;19.226;2022-11-06T04:47:13;28.38;;;13.10;;
58017;SDS011;43810;50.860;19.226;2022-11-06T04:49:43;28.48;;;12.95;;
58017;SDS011;43810;50.860;19.226;2022-11-06T04:52:14;35.38;;;14.73;;
58017;SDS011;43810;50.860;19.226;2022-11-06T04:54:43;29.52;;;13.48;;
58017;SDS011;43810;50.860;19.226;2022-11-06T04:57:09;38.45;;;14.02;;
58017;SDS011;43810;50.860;19.226;2022-11-06T04:59:35;29.67;;;13.05;;
58017;SDS011;43810;50.860;19.226;2022-11-06T05:02:01;26.52;;;12.13;;
58017;SDS011;43810;50.860;19.226;2022-11-06T05:04:28;29.92;;;13.75;;
58017;SDS011;43810;50.860;19.226;2022-11-06T05:06:54;39.90;;;16.90;;
58017;SDS011;43810;50.860;19.226;2022-11-06T05:09:21;33.00;;;15.23;;
58017;SDS011;43810;50.860;19.226;2022-11-06T05:11:47;33.22;;;15.07;;
58017;SDS011;43810;50.860;19.226;2022-11-06T05:14:13;31.17;;;15.95;;
58017;SDS011;43810;50.860;19.226;2022-11-06T05:16:38;35.70;;;15.27;;
58017;SDS011;43810;50.860;19.226;2022-11-06T05:19:04;32.47;;;15.18;;
58017;SDS011;43810;50.860;19.226;2022-11-06T05:21:30;33.30;;;14.18;;
58017;SDS011;43810;50.860;19.226;2022-11-06T05:24:15;30.80;;;13.80;;
58017;SDS011;43810;50.860;19.226;2022-11-06T05:26:40;28.52;;;12.85;;
58017;SDS011;43810;50.860;19.226;2022-11-06T05:29:06;32.85;;;14.38;;
58017;SDS011;43810;50.860;19.226;2022-11-06T05:31:32;25.08;;;12.15;;
58017;SDS011;43810;50.860;19.226;2022-11-06T05:33:58;40.22;;;15.40;;
58017;SDS011;43810;50.860;19.226;2022-11-06T05:36:24;35.15;;;16.05;;
58017;SDS011;43810;50.860;19.226;2022-11-06T05:38:50;34.55;;;14.27;;
58017;SDS011;43810;50.860;19.226;2022-11-06T05:41:16;31.08;;;14.43;;
58017;SDS011;43810;50.860;19.226;2022-11-06T05:43:42;33.22;;;14.52;;
58017;SDS011;43810;50.860;19.226;2022-11-06T05:46:07;27.83;;;11.95;;
58017;SDS011;43810;50.860;19.226;2022-11-06T05:48:34;19.95;;;9.95;;
58017;SDS011;43810;50.860;19.226;2022-11-06T05:51:00;37.28;;;13.82;;
58017;SDS011;43810;50.860;19.226;2022-11-06T05:53:30;65.13;;;13.93;;
58017;SDS011;43810;50.860;19.226;2022-11-06T05:55:57;29.05;;;11.25;;
58017;SDS011;43810;50.860;19.226;2022-11-06T05:58:23;28.77;;;11.23;;
58017;SDS011;43810;50.860;19.226;2022-11-06T06:00:50;48.00;;;13.52;;
58017;SDS011;43810;50.860;19.226;2022-11-06T06:03:15;32.40;;;15.13;;
58017;SDS011;43810;50.860;19.226;2022-11-06T06:05:41;57.35;;;16.77;;
58017;SDS011;43810;50.860;19.226;2022-11-06T06:08:07;42.20;;;17.05;;
58017;SDS011;43810;50.860;19.226;2022-11-06T06:10:33;28.63;;;14.40;;
58017;SDS011;43810;50.860;19.226;2022-11-06T06:12:59;62.03;;;17.05;;
58017;SDS011;43810;50.860;19.226;2022-11-06T06:15:25;50.67;;;17.65;;
58017;SDS011;43810;50.860;19.226;2022-11-06T06:17:51;35.45;;;16.88;;
58017;SDS011;43810;50.860;19.226;2022-11-06T06:20:17;49.85;;;18.33;;
58017;SDS011;43810;50.860;19.226;2022-11-06T06:22:43;56.47;;;18.85;;
58017;SDS011;43810;50.860;19.226;2022-11-06T06:25:16;49.25;;;20.13;;
58017;SDS011;43810;50.860;19.226;2022-11-06T06:27:42;73.95;;;22.23;;
58017;SDS011;43810;50.860;19.226;2022-11-06T06:30:08;50.97;;;20.50;;
58017;SDS011;43810;50.860;19.226;2022-11-06T06:32:34;52.50;;;21.23;;
58017;SDS011;43810;50.860;19.226;2022-11-06T06:35:00;52.13;;;22.88;;
58017;SDS011;43810;50.860;19.226;2022-11-06T06:37:29;54.92;;;25.85;;
58017;SDS011;43810;50.860;19.226;2022-11-06T06:39:55;79.40;;;28.30;;
58017;SDS011;43810;50.860;19.226;2022-11-06T06:42:21;89.97;;;28.05;;
58017;SDS011;43810;50.860;19.226;2022-11-06T06:44:46;72.43;;;24.17;;
58017;SDS011;43810;50.860;19.226;2022-11-06T06:47:12;94.38;;;26.98;;
58017;SDS011;43810;50.860;19.226;2022-11-06T06:49:41;70.85;;;26.90;;
58017;SDS011;43810;50.860;19.226;2022-11-06T06:52:08;83.80;;;25.65;;
58017;SDS011;43810;50.860;19.226;2022-11-06T06:54:34;67.95;;;22.80;;
58017;SDS011;43810;50.860;19.226;2022-11-06T06:57:00;79.35;;;22.58;;
58017;SDS011;43810;50.860;19.226;2022-11-06T06:59:26;103.00;;;21.73;;
58017;SDS011;43810;50.860;19.226;2022-11-06T07:01:54;39.53;;;17.55;;
58017;SDS011;43810;50.860;19.226;2022-11-06T07:04:20;44.55;;;17.60;;
58017;SDS011;43810;50.860;19.226;2022-11-06T07:06:46;44.28;;;18.15;;
58017;SDS011;43810;50.860;19.226;2022-11-06T07:09:11;38.10;;;17.33;;
58017;SDS011;43810;50.860;19.226;2022-11-06T07:11:38;54.38;;;21.55;;
58017;SDS011;43810;50.860;19.226;2022-11-06T07:14:03;53.83;;;21.88;;
58017;SDS011;43810;50.860;19.226;2022-11-06T07:16:29;55.72;;;20.13;;
58017;SDS011;43810;50.860;19.226;2022-11-06T07:18:56;57.70;;;22.45;;
58017;SDS011;43810;50.860;19.226;2022-11-06T07:21:23;45.20;;;22.15;;
58017;SDS011;43810;50.860;19.226;2022-11-06T07:23:49;55.17;;;24.08;;
58017;SDS011;43810;50.860;19.226;2022-11-06T07:26:15;44.88;;;20.63;;
58017;SDS011;43810;50.860;19.226;2022-11-06T07:28:41;40.85;;;19.13;;
58017;SDS011;43810;50.860;19.226;2022-11-06T07:31:07;35.60;;;16.90;;
58017;SDS011;43810;50.860;19.226;2022-11-06T07:33:34;35.15;;;16.27;;
58017;SDS011;43810;50.860;19.226;2022-11-06T07:36:04;34.88;;;15.40;;
58017;SDS011;43810;50.860;19.226;2022-11-06T07:38:32;36.83;;;16.48;;
58017;SDS011;43810;50.860;19.226;2022-11-06T07:41:06;38.28;;;17.35;;
58017;SDS011;43810;50.860;19.226;2022-11-06T07:43:33;33.67;;;17.23;;
58017;SDS011;43810;50.860;19.226;2022-11-06T07:46:00;42.10;;;20.30;;
58017;SDS011;43810;50.860;19.226;2022-11-06T07:48:29;33.83;;;16.02;;
58017;SDS011;43810;50.860;19.226;2022-11-06T07:50:55;37.20;;;18.48;;
58017;SDS011;43810;50.860;19.226;2022-11-06T07:53:21;35.67;;;18.15;;
58017;SDS011;43810;50.860;19.226;2022-11-06T07:55:48;38.78;;;18.13;;
58017;SDS011;43810;50.860;19.226;2022-11-06T07:58:16;39.20;;;19.55;;
58017;SDS011;43810;50.860;19.226;2022-11-06T08:00:46;35.67;;;17.23;;
58017;SDS011;43810;50.860;19.226;2022-11-06T08:05:42;33.40;;;16.80;;
58017;SDS011;43810;50.860;19.226;2022-11-06T08:08:08;30.98;;;17.00;;
58017;SDS011;43810;50.860;19.226;2022-11-06T08:10:34;45.85;;;19.63;;
58017;SDS011;43810;50.860;19.226;2022-11-06T08:13:08;45.85;;;19.42;;
58017;SDS011;43810;50.860;19.226;2022-11-06T08:15:38;38.85;;;17.38;;
58017;SDS011;43810;50.860;19.226;2022-11-06T08:18:05;49.97;;;18.85;;
58017;SDS011;43810;50.860;19.226;2022-11-06T08:20:33;56.03;;;24.48;;
58017;SDS011;43810;50.860;19.226;2022-11-06T08:23:00;54.88;;;22.92;;
58017;SDS011;43810;50.860;19.226;2022-11-06T08:25:28;54.50;;;25.65;;
58017;SDS011;43810;50.860;19.226;2022-11-06T08:27:55;81.97;;;32.17;;
58017;SDS011;43810;50.860;19.226;2022-11-06T08:30:25;77.78;;;32.65;;
58017;SDS011;43810;50.860;19.226;2022-11-06T08:32:52;76.47;;;32.30;;
58017;SDS011;43810;50.860;19.226;2022-11-06T08:35:18;70.78;;;32.22;;
58017;SDS011;43810;50.860;19.226;2022-11-06T08:37:44;81.85;;;34.38;;
58017;SDS011;43810;50.860;19.226;2022-11-06T08:40:10;69.20;;;30.48;;
58017;SDS011;43810;50.860;19.226;2022-11-06T08:42:36;79.05;;;32.10;;
58017;SDS011;43810;50.860;19.226;2022-11-06T08:45:03;75.57;;;32.03;;
58017;SDS011;43810;50.860;19.226;2022-11-06T08:47:30;61.08;;;27.23;;
58017;SDS011;43810;50.860;19.226;2022-11-06T08:49:56;66.18;;;26.50;;
58017;SDS011;43810;50.860;19.226;2022-11-06T08:52:21;59.85;;;26.08;;
58017;SDS011;43810;50.860;19.226;2022-11-06T08:54:47;52.28;;;25.42;;
58017;SDS011;43810;50.860;19.226;2022-11-06T08:57:13;59.47;;;26.33;;
58017;SDS011;43810;50.860;19.226;2022-11-06T08:59:38;54.67;;;23.10;;
58017;SDS011;43810;50.860;19.226;2022-11-06T09:02:04;54.63;;;22.80;;
58017;SDS011;43810;50.860;19.226;2022-11-06T09:04:30;55.25;;;23.73;;
58017;SDS011;43810;50.860;19.226;2022-11-06T09:06:56;60.92;;;23.58;;
58017;SDS011;43810;50.860;19.226;2022-11-06T09:09:22;67.28;;;25.55;;
58017;SDS011;43810;50.860;19.226;2022-11-06T09:11:58;44.72;;;18.65;;
58017;SDS011;43810;50.860;19.226;2022-11-06T09:14:25;40.58;;;17.92;;
58017;SDS011;43810;50.860;19.226;2022-11-06T09:16:52;39.53;;;16.00;;
58017;SDS011;43810;50.860;19.226;2022-11-06T09:19:18;39.35;;;15.20;;
58017;SDS011;43810;50.860;19.226;2022-11-06T09:21:45;36.22;;;13.27;;
58017;SDS011;43810;50.860;19.226;2022-11-06T09:24:13;26.42;;;10.77;;
58017;SDS011;43810;50.860;19.226;2022-11-06T09:26:39;28.08;;;12.18;;
58017;SDS011;43810;50.860;19.226;2022-11-06T09:29:05;21.90;;;9.32;;
58017;SDS011;43810;50.860;19.226;2022-11-06T09:31:30;23.67;;;8.20;;
58017;SDS011;43810;50.860;19.226;2022-11-06T09:33:57;29.25;;;9.05;;
58017;SDS011;43810;50.860;19.226;2022-11-06T09:36:22;19.65;;;7.63;;
58017;SDS011;43810;50.860;19.226;2022-11-06T09:38:48;10.98;;;5.47;;
58017;SDS011;43810;50.860;19.226;2022-11-06T09:41:20;21.27;;;5.60;;
58017;SDS011;43810;50.860;19.226;2022-11-06T09:46:30;16.75;;;4.43;;
58017;SDS011;43810;50.860;19.226;2022-11-06T09:54:48;10.93;;;3.42;;
58017;SDS011;43810;50.860;19.226;2022-11-06T09:57:20;10.75;;;2.85;;
58017;SDS011;43810;50.860;19.226;2022-11-06T09:59:50;10.32;;;2.80;;
58017;SDS011;43810;50.860;19.226;2022-11-06T10:02:22;11.63;;;2.90;;
58017;SDS011;43810;50.860;19.226;2022-11-06T10:07:54;9.23;;;3.10;;
58017;SDS011;43810;50.860;19.226;2022-11-06T10:10:25;10.63;;;3.42;;
58017;SDS011;43810;50.860;19.226;2022-11-06T10:23:51;9.30;;;3.85;;
58017;SDS011;43810;50.860;19.226;2022-11-06T10:26:30;13.95;;;3.33;;
58017;SDS011;43810;50.860;19.226;2022-11-06T10:37:00;9.43;;;3.38;;
58017;SDS011;43810;50.860;19.226;2022-11-06T10:39:33;9.35;;;2.80;;
58017;SDS011;43810;50.860;19.226;2022-11-06T10:42:19;7.30;;;3.13;;
58017;SDS011;43810;50.860;19.226;2022-11-06T10:44:59;16.13;;;3.30;;
58017;SDS011;43810;50.860;19.226;2022-11-06T10:47:29;8.43;;;2.78;;
58017;SDS011;43810;50.860;19.226;2022-11-06T10:49:59;6.45;;;2.50;;
58017;SDS011;43810;50.860;19.226;2022-11-06T10:55:14;5.70;;;2.22;;
58017;SDS011;43810;50.860;19.226;2022-11-06T10:57:56;7.93;;;2.30;;
58017;SDS011;43810;50.860;19.226;2022-11-06T11:00:26;7.45;;;2.28;;
58017;SDS011;43810;50.860;19.226;2022-11-06T11:02:55;5.32;;;2.15;;
58017;SDS011;43810;50.860;19.226;2022-11-06T11:05:24;4.45;;;1.98;;
58017;SDS011;43810;50.860;19.226;2022-11-06T11:07:51;6.20;;;1.88;;
58017;SDS011;43810;50.860;19.226;2022-11-06T11:12:54;5.47;;;2.20;;
58017;SDS011;43810;50.860;19.226;2022-11-06T11:15:22;8.00;;;2.05;;
58017;SDS011;43810;50.860;19.226;2022-11-06T11:20:38;7.22;;;1.83;;
58017;SDS011;43810;50.860;19.226;2022-11-06T11:25:51;6.13;;;1.35;;
58017;SDS011;43810;50.860;19.226;2022-11-06T11:28:26;2.75;;;1.10;;
58017;SDS011;43810;50.860;19.226;2022-11-06T11:30:57;4.32;;;1.48;;
58017;SDS011;43810;50.860;19.226;2022-11-06T11:33:52;8.15;;;3.47;;
58017;SDS011;43810;50.860;19.226;2022-11-06T11:36:20;12.60;;;4.75;;
58017;SDS011;43810;50.860;19.226;2022-11-06T11:38:48;9.43;;;3.58;;
58017;SDS011;43810;50.860;19.226;2022-11-06T11:51:52;5.38;;;1.70;;
58017;SDS011;43810;50.860;19.226;2022-11-06T11:54:19;6.60;;;1.60;;
58017;SDS011;43810;50.860;19.226;2022-11-06T11:59:17;3.67;;;1.85;;
58017;SDS011;43810;50.860;19.226;2022-11-06T12:01:45;6.30;;;1.48;;
58017;SDS011;43810;50.860;19.226;2022-11-06T12:06:57;4.57;;;1.70;;
58017;SDS011;43810;50.860;19.226;2022-11-06T12:11:55;8.18;;;2.47;;
58017;SDS011;43810;50.860;19.226;2022-11-06T12:14:24;6.07;;;2.65;;
58017;SDS011;43810;50.860;19.226;2022-11-06T12:17:03;6.97;;;2.30;;
58017;SDS011;43810;50.860;19.226;2022-11-06T12:19:36;11.48;;;2.50;;
58017;SDS011;43810;50.860;19.226;2022-11-06T12:22:11;10.40;;;2.47;;
58017;SDS011;43810;50.860;19.226;2022-11-06T12:27:23;7.05;;;2.13;;
58017;SDS011;43810;50.860;19.226;2022-11-06T12:30:14;8.40;;;2.25;;
58017;SDS011;43810;50.860;19.226;2022-11-06T12:32:55;5.13;;;2.35;;
58017;SDS011;43810;50.860;19.226;2022-11-06T12:40:56;5.95;;;2.95;;
58017;SDS011;43810;50.860;19.226;2022-11-06T12:43:30;6.38;;;2.90;;
58017;SDS011;43810;50.860;19.226;2022-11-06T12:54:17;7.63;;;2.80;;
58017;SDS011;43810;50.860;19.226;2022-11-06T12:57:12;8.02;;;2.22;;
58017;SDS011;43810;50.860;19.226;2022-11-06T12:59:49;6.90;;;2.10;;
58017;SDS011;43810;50.860;19.226;2022-11-06T13:02:27;5.28;;;1.70;;
58017;SDS011;43810;50.860;19.226;2022-11-06T13:05:15;7.22;;;2.30;;
58017;SDS011;43810;50.860;19.226;2022-11-06T13:07:58;9.35;;;2.45;;
58017;SDS011;43810;50.860;19.226;2022-11-06T13:10:46;6.53;;;2.25;;
58017;SDS011;43810;50.860;19.226;2022-11-06T13:16:06;6.03;;;2.30;;
58017;SDS011;43810;50.860;19.226;2022-11-06T13:18:36;7.40;;;2.13;;
58017;SDS011;43810;50.860;19.226;2022-11-06T13:23:41;7.15;;;2.10;;
58017;SDS011;43810;50.860;19.226;2022-11-06T13:26:11;6.40;;;2.15;;
58017;SDS011;43810;50.860;19.226;2022-11-06T13:28:43;4.80;;;1.77;;
58017;SDS011;43810;50.860;19.226;2022-11-06T13:31:12;5.72;;;1.58;;
58017;SDS011;43810;50.860;19.226;2022-11-06T13:33:42;6.88;;;2.35;;
58017;SDS011;43810;50.860;19.226;2022-11-06T13:36:13;4.35;;;2.08;;
58017;SDS011;43810;50.860;19.226;2022-11-06T13:41:31;14.35;;;5.03;;
58017;SDS011;43810;50.860;19.226;2022-11-06T13:44:01;10.30;;;2.55;;
58017;SDS011;43810;50.860;19.226;2022-11-06T13:46:36;11.65;;;3.13;;
58017;SDS011;43810;50.860;19.226;2022-11-06T13:49:26;6.13;;;2.38;;
58017;SDS011;43810;50.860;19.226;2022-11-06T13:52:01;6.38;;;2.40;;
58017;SDS011;43810;50.860;19.226;2022-11-06T14:00:10;13.18;;;4.85;;
58017;SDS011;43810;50.860;19.226;2022-11-06T14:10:52;11.60;;;3.22;;
58017;SDS011;43810;50.860;19.226;2022-11-06T14:13:27;10.80;;;2.83;;
58017;SDS011;43810;50.860;19.226;2022-11-06T14:18:53;6.95;;;3.20;;
58017;SDS011;43810;50.860;19.226;2022-11-06T14:26:39;13.45;;;6.20;;
58017;SDS011;43810;50.860;19.226;2022-11-06T14:34:29;10.48;;;3.92;;
58017;SDS011;43810;50.860;19.226;2022-11-06T14:36:57;7.28;;;3.67;;
58017;SDS011;43810;50.860;19.226;2022-11-06T14:42:37;7.72;;;3.78;;
58017;SDS011;43810;50.860;19.226;2022-11-06T14:47:38;9.25;;;3.85;;
58017;SDS011;43810;50.860;19.226;2022-11-06T14:53:05;10.18;;;4.05;;
58017;SDS011;43810;50.860;19.226;2022-11-06T14:55:44;8.77;;;3.95;;
58017;SDS011;43810;50.860;19.226;2022-11-06T14:58:32;6.53;;;4.55;;
58017;SDS011;43810;50.860;19.226;2022-11-06T15:01:26;8.35;;;3.85;;
58017;SDS011;43810;50.860;19.226;2022-11-06T15:03:55;11.70;;;4.80;;
58017;SDS011;43810;50.860;19.226;2022-11-06T15:06:40;12.73;;;5.95;;
58017;SDS011;43810;50.860;19.226;2022-11-06T15:11:50;8.63;;;4.10;;
58017;SDS011;43810;50.860;19.226;2022-11-06T15:16:54;8.75;;;4.20;;
58017;SDS011;43810;50.860;19.226;2022-11-06T15:22:14;11.23;;;4.60;;
58017;SDS011;43810;50.860;19.226;2022-11-06T15:25:11;12.52;;;5.45;;
58017;SDS011;43810;50.860;19.226;2022-11-06T15:30:30;11.38;;;5.88;;
58017;SDS011;43810;50.860;19.226;2022-11-06T15:33:04;14.43;;;7.13;;
58017;SDS011;43810;50.860;19.226;2022-11-06T15:35:38;11.20;;;6.30;;
58017;SDS011;43810;50.860;19.226;2022-11-06T15:38:06;15.88;;;7.35;;
58017;SDS011;43810;50.860;19.226;2022-11-06T15:40:39;17.63;;;6.75;;
58017;SDS011;43810;50.860;19.226;2022-11-06T15:43:16;17.40;;;7.22;;
58017;SDS011;43810;50.860;19.226;2022-11-06T15:45:44;16.52;;;6.60;;
58017;SDS011;43810;50.860;19.226;2022-11-06T15:48:29;14.05;;;6.70;;
58017;SDS011;43810;50.860;19.226;2022-11-06T15:50:55;13.20;;;6.82;;
58017;SDS011;43810;50.860;19.226;2022-11-06T15:53:22;17.63;;;7.45;;
58017;SDS011;43810;50.860;19.226;2022-11-06T15:55:57;17.92;;;8.25;;
58017;SDS011;43810;50.860;19.226;2022-11-06T15:58:30;12.32;;;7.43;;
58017;SDS011;43810;50.860;19.226;2022-11-06T16:00:59;15.82;;;8.10;;
58017;SDS011;43810;50.860;19.226;2022-11-06T16:03:28;16.15;;;7.93;;
58017;SDS011;43810;50.860;19.226;2022-11-06T16:05:57;13.98;;;7.35;;
58017;SDS011;43810;50.860;19.226;2022-11-06T16:08:28;13.55;;;6.95;;
58017;SDS011;43810;50.860;19.226;2022-11-06T16:10:56;13.98;;;6.97;;
58017;SDS011;43810;50.860;19.226;2022-11-06T16:13:24;13.77;;;6.68;;
58017;SDS011;43810;50.860;19.226;2022-11-06T16:15:55;13.00;;;7.18;;
58017;SDS011;43810;50.860;19.226;2022-11-06T16:21:14;18.67;;;8.60;;
58017;SDS011;43810;50.860;19.226;2022-11-06T16:23:43;20.98;;;7.85;;
58017;SDS011;43810;50.860;19.226;2022-11-06T16:26:56;17.40;;;8.25;;
58017;SDS011;43810;50.860;19.226;2022-11-06T16:29:09;16.40;;;8.63;;
58017;SDS011;43810;50.860;19.226;2022-11-06T16:31:48;21.23;;;9.68;;
58017;SDS011;43810;50.860;19.226;2022-11-06T16:39:42;31.95;;;11.13;;
58017;SDS011;43810;50.860;19.226;2022-11-06T16:42:38;23.77;;;10.95;;
58017;SDS011;43810;50.860;19.226;2022-11-06T16:45:18;26.60;;;10.68;;
58017;SDS011;43810;50.860;19.226;2022-11-06T16:50:41;30.00;;;11.68;;
58017;SDS011;43810;50.860;19.226;2022-11-06T16:53:09;30.58;;;13.02;;
58017;SDS011;43810;50.860;19.226;2022-11-06T16:55:35;34.20;;;14.88;;
58017;SDS011;43810;50.860;19.226;2022-11-06T16:58:02;35.97;;;15.20;;
58017;SDS011;43810;50.860;19.226;2022-11-06T17:00:29;35.38;;;14.80;;
58017;SDS011;43810;50.860;19.226;2022-11-06T17:02:58;37.30;;;16.67;;
58017;SDS011;43810;50.860;19.226;2022-11-06T17:05:31;36.03;;;15.18;;
58017;SDS011;43810;50.860;19.226;2022-11-06T17:15:55;41.75;;;17.70;;
58017;SDS011;43810;50.860;19.226;2022-11-06T17:18:24;39.88;;;16.38;;
58017;SDS011;43810;50.860;19.226;2022-11-06T17:20:56;33.33;;;15.02;;
58017;SDS011;43810;50.860;19.226;2022-11-06T17:23:23;26.83;;;14.15;;
58017;SDS011;43810;50.860;19.226;2022-11-06T17:25:51;36.10;;;16.73;;
58017;SDS011;43810;50.860;19.226;2022-11-06T17:28:20;37.72;;;14.93;;
58017;SDS011;43810;50.860;19.226;2022-11-06T17:30:47;34.75;;;15.73;;
58017;SDS011;43810;50.860;19.226;2022-11-06T17:33:13;31.95;;;16.33;;
58017;SDS011;43810;50.860;19.226;2022-11-06T17:35:40;34.17;;;16.13;;
58017;SDS011;43810;50.860;19.226;2022-11-06T17:38:06;34.15;;;18.48;;